Time;durP1;ratioP1;P1;durP2;ratioP2;P2;SDS_P1;SDS_P2;PMS_P1;PMS_P2;Temp;Humidity;BMP_temperature;BMP_pressure;BME280_temperature;BME280_humidity;BME280_pressure;Samples;Min_cycle;Max_cycle;Signal;HPM_P1;HPM_P2
2023/07/17 18:23:38;;;;;;;30.47;28.30;;;31.20;37.80;;;;;;5128037;27;20528;-81
2023/07/17 18:26:05;;;;;;;30.40;28.30;;;31.40;37.30;;;;;;5137122;27;20806;-83
2023/07/17 18:28:31;;;;;;;32.93;30.67;;;31.60;37.50;;;;;;5126868;28;20478;-80
2023/07/17 18:30:58;;;;;;;30.47;28.37;;;32.30;36.90;;;;;;5121045;27;20509;-85
2023/07/17 18:33:25;;;;;;;30.00;27.90;;;32.60;36.30;;;;;;5113547;27;20441;-82
2023/07/17 18:35:52;;;;;;;30.13;28.03;;;32.90;36.00;;;;;;5118733;27;20456;-81
2023/07/17 18:38:20;;;;;;;31.27;29.03;;;33.10;35.80;;;;;;5118575;27;20486;-80
2023/07/17 18:40:48;;;;;;;29.70;27.60;;;33.30;35.80;;;;;;5108500;28;20566;-86
2023/07/17 18:43:16;;;;;;;31.40;29.13;;;32.70;35.60;;;;;;5115078;28;20475;-81
2023/07/17 18:45:43;;;;;;;30.33;28.20;;;32.30;36.40;;;;;;5113782;27;20455;-81
2023/07/17 18:48:09;;;;;;;30.90;28.70;;;31.90;36.70;;;;;;5111260;27;20544;-80
2023/07/17 18:50:36;;;;;;;29.83;27.77;;;31.30;37.70;;;;;;5113279;27;20459;-81
2023/07/17 18:53:04;;;;;;;30.27;28.17;;;30.60;38.40;;;;;;5114505;28;20451;-83
2023/07/17 18:55:31;;;;;;;33.60;31.20;;;29.60;39.90;;;;;;5113241;28;20456;-82
2023/07/17 18:57:59;;;;;;;31.17;28.90;;;28.90;41.20;;;;;;5112523;28;20477;-85
2023/07/17 19:00:26;;;;;;;31.57;29.33;;;28.50;42.10;;;;;;5116898;28;20466;-82
2023/07/17 19:02:53;;;;;;;31.83;29.63;;;28.20;42.80;;;;;;5114162;28;20571;-80
2023/07/17 19:05:20;;;;;;;32.03;29.53;;;28.00;43.50;;;;;;5118736;27;20461;-79
2023/07/17 19:07:47;;;;;;;32.27;30.00;;;27.60;44.60;;;;;;5114451;28;21230;-79
2023/07/17 19:10:14;;;;;;;30.80;28.50;;;27.30;45.30;;;;;;5107900;27;20475;-79
2023/07/17 19:12:42;;;;;;;31.00;28.80;;;27.00;46.70;;;;;;5112390;27;20443;-78
2023/07/17 19:15:11;;;;;;;30.77;28.63;;;26.60;47.20;;;;;;5107109;27;20477;-76
2023/07/17 19:17:38;;;;;;;31.83;29.53;;;26.30;48.10;;;;;;5113302;27;20469;-77
2023/07/17 19:20:06;;;;;;;31.20;29.10;;;26.10;48.20;;;;;;5114925;27;20460;-80
2023/07/17 19:22:33;;;;;;;30.23;28.00;;;25.90;48.50;;;;;;5122026;27;20893;-80
2023/07/17 19:25:00;;;;;;;31.33;28.87;;;25.70;48.20;;;;;;5124017;27;20798;-78
2023/07/17 19:27:27;;;;;;;31.77;29.57;;;25.60;49.30;;;;;;5112465;27;20507;-76
2023/07/17 19:29:54;;;;;;;31.03;28.63;;;25.50;50.00;;;;;;5117604;27;20466;-80
2023/07/17 19:32:24;;;;;;;29.77;27.77;;;25.30;51.10;;;;;;5118743;27;20933;-78
2023/07/17 19:34:51;;;;;;;30.53;28.40;;;25.10;50.70;;;;;;5091661;27;20488;-78
2023/07/17 19:37:19;;;;;;;30.87;28.57;;;25.00;50.50;;;;;;5093330;28;20473;-80
2023/07/17 19:39:48;;;;;;;31.13;28.80;;;24.90;50.90;;;;;;5104405;28;20456;-78
2023/07/17 19:42:15;;;;;;;30.00;27.90;;;24.80;51.60;;;;;;5097385;28;20476;-79
2023/07/17 19:44:42;;;;;;;30.10;28.10;;;24.70;52.50;;;;;;5098836;28;20455;-80
2023/07/17 19:47:09;;;;;;;30.37;28.10;;;24.50;53.10;;;;;;5108149;28;20473;-79
2023/07/17 19:49:37;;;;;;;29.53;27.40;;;24.40;53.40;;;;;;5098104;28;20449;-80
2023/07/17 19:52:05;;;;;;;29.97;27.87;;;24.30;53.70;;;;;;5095451;27;20460;-77
2023/07/17 19:54:33;;;;;;;28.30;26.40;;;24.20;54.20;;;;;;5097632;27;20951;-77
2023/07/17 19:56:59;;;;;;;28.53;26.63;;;24.00;54.70;;;;;;5098995;28;20517;-80
2023/07/17 19:59:27;;;;;;;29.17;27.17;;;23.90;55.10;;;;;;5109285;27;20448;-73
2023/07/17 20:01:56;;;;;;;29.13;27.13;;;23.70;55.60;;;;;;5105328;28;20452;-73
2023/07/17 20:04:22;;;;;;;28.50;26.33;;;23.60;56.00;;;;;;5103579;28;20503;-75
2023/07/17 20:06:51;;;;;;;28.13;26.20;;;23.50;56.40;;;;;;5091779;28;20479;-76
2023/07/17 20:09:19;;;;;;;28.80;26.90;;;23.30;56.60;;;;;;5090896;28;20462;-75
2023/07/17 20:11:46;;;;;;;29.47;27.00;;;23.20;56.60;;;;;;5104335;28;20463;-77
2023/07/17 20:14:14;;;;;;;29.20;27.03;;;23.10;57.20;;;;;;5101536;27;20461;-77
2023/07/17 20:16:40;;;;;;;29.20;26.87;;;23.10;57.30;;;;;;5102071;27;20507;-77
2023/07/17 20:19:07;;;;;;;27.23;25.30;;;23.00;57.30;;;;;;5100850;27;20456;-76
2023/07/17 20:21:34;;;;;;;29.00;26.80;;;23.00;57.50;;;;;;5097396;28;20516;-76
2023/07/17 20:24:05;;;;;;;28.87;26.53;;;23.00;57.60;;;;;;5105636;27;20557;-76
2023/07/17 20:26:32;;;;;;;28.10;26.20;;;22.90;57.70;;;;;;5105267;28;20476;-76
2023/07/17 20:28:59;;;;;;;29.33;27.20;;;22.80;58.00;;;;;;5110180;28;20976;-75
2023/07/17 20:31:26;;;;;;;29.33;27.10;;;22.70;58.30;;;;;;5110125;28;20449;-76
2023/07/17 20:33:53;;;;;;;28.60;26.70;;;22.60;58.70;;;;;;5107458;28;20991;-77
2023/07/17 20:36:20;;;;;;;28.87;26.97;;;22.50;58.90;;;;;;5104068;27;21028;-77
2023/07/17 20:38:47;;;;;;;30.00;27.90;;;22.40;59.30;;;;;;5105922;28;20496;-76
2023/07/17 20:41:17;;;;;;;29.33;27.33;;;22.30;59.60;;;;;;5110979;28;21092;-76
2023/07/17 20:43:44;;;;;;;29.70;27.53;;;22.20;59.90;;;;;;5096629;28;20573;-76
2023/07/17 20:46:11;;;;;;;29.53;27.27;;;22.10;60.20;;;;;;5094627;28;21055;-78
2023/07/17 20:48:39;;;;;;;29.07;27.07;;;22.10;60.20;;;;;;5101884;28;20465;-79
2023/07/17 20:51:09;;;;;;;29.20;27.20;;;22.00;60.60;;;;;;5088814;28;20453;-76
2023/07/17 20:53:37;;;;;;;28.30;26.30;;;22.00;60.60;;;;;;5089862;28;20451;-76
2023/07/17 20:56:04;;;;;;;29.40;27.40;;;21.90;60.30;;;;;;5091443;28;20485;-75
2023/07/17 20:58:34;;;;;;;28.27;26.30;;;21.80;60.50;;;;;;5098458;28;20463;-76
2023/07/17 21:01:02;;;;;;;28.70;26.80;;;21.80;60.90;;;;;;5095429;28;20539;-76
2023/07/17 21:03:30;;;;;;;28.90;26.80;;;21.60;61.30;;;;;;5106736;28;20485;-76
2023/07/17 21:05:57;;;;;;;29.77;27.87;;;21.60;61.50;;;;;;5103584;28;20463;-76
2023/07/17 21:08:26;;;;;;;29.00;27.07;;;21.50;61.90;;;;;;5098776;28;20461;-77
2023/07/17 21:10:54;;;;;;;30.07;28.27;;;21.40;62.10;;;;;;5089916;28;20514;-78
2023/07/17 21:13:21;;;;;;;29.20;27.40;;;21.40;62.40;;;;;;5097027;28;20819;-77
2023/07/17 21:15:49;;;;;;;29.00;27.20;;;21.30;62.70;;;;;;5093088;28;20461;-75
2023/07/17 21:18:16;;;;;;;29.43;27.30;;;21.30;62.50;;;;;;5098570;28;20474;-75
2023/07/17 21:20:43;;;;;;;27.83;26.07;;;21.20;62.80;;;;;;5106063;28;20458;-73
2023/07/17 21:23:10;;;;;;;29.50;27.60;;;21.20;62.70;;;;;;5106999;28;20476;-73
2023/07/17 21:25:39;;;;;;;32.73;30.53;;;21.10;62.70;;;;;;5094578;28;20544;-74
2023/07/17 21:28:06;;;;;;;28.43;26.53;;;21.00;63.10;;;;;;5093020;27;20505;-73
2023/07/17 21:30:33;;;;;;;29.13;27.07;;;21.00;63.10;;;;;;5092160;28;20461;-74
2023/07/17 21:33:01;;;;;;;29.23;27.30;;;20.90;63.40;;;;;;5109116;27;20490;-74
2023/07/17 21:35:28;;;;;;;29.77;27.57;;;20.90;63.50;;;;;;5093817;28;20460;-74
2023/07/17 21:37:56;;;;;;;28.33;26.53;;;20.80;63.40;;;;;;5103718;28;20484;-74
2023/07/17 21:40:22;;;;;;;30.23;28.03;;;20.90;63.60;;;;;;5108728;28;20461;-72
2023/07/17 21:42:49;;;;;;;28.73;26.90;;;20.90;63.40;;;;;;5101824;27;20483;-73
2023/07/17 21:45:16;;;;;;;28.93;26.73;;;20.80;63.50;;;;;;5102842;28;20456;-73
2023/07/17 21:47:43;;;;;;;28.53;26.73;;;20.70;63.70;;;;;;5096890;28;20476;-74
2023/07/17 21:50:12;;;;;;;28.70;26.70;;;20.70;63.70;;;;;;5095354;28;20453;-73
2023/07/17 21:52:39;;;;;;;28.43;26.43;;;20.70;63.60;;;;;;5100742;28;20449;-74
2023/07/17 21:55:10;;;;;;;29.37;27.37;;;20.70;64.00;;;;;;5105018;28;20567;-74
2023/07/17 21:57:38;;;;;;;29.37;27.47;;;20.60;64.40;;;;;;5096987;28;21028;-74
2023/07/17 22:00:06;;;;;;;28.10;26.10;;;20.60;64.50;;;;;;5090119;28;20465;-74
2023/07/17 22:02:33;;;;;;;28.63;26.80;;;20.60;64.50;;;;;;5094236;28;20498;-73
2023/07/17 22:05:00;;;;;;;29.33;27.50;;;20.50;64.90;;;;;;5092564;28;20448;-73
2023/07/17 22:07:29;;;;;;;28.10;26.40;;;20.50;64.60;;;;;;5092382;28;20484;-74
2023/07/17 22:09:56;;;;;;;31.17;28.87;;;20.40;64.70;;;;;;5089931;28;20548;-74
2023/07/17 22:12:23;;;;;;;28.50;26.70;;;20.40;64.80;;;;;;5089475;28;20461;-74
2023/07/17 22:14:51;;;;;;;28.80;27.03;;;20.30;65.00;;;;;;5093162;28;20461;-74
2023/07/17 22:17:21;;;;;;;29.53;27.43;;;20.30;64.90;;;;;;5093241;28;21023;-73
2023/07/17 22:19:49;;;;;;;29.53;27.63;;;20.30;64.90;;;;;;5094068;28;20461;-73
2023/07/17 22:22:16;;;;;;;29.80;27.70;;;20.30;65.00;;;;;;5089741;28;20578;-74
2023/07/17 22:24:44;;;;;;;29.70;27.60;;;20.20;65.30;;;;;;5103908;27;20527;-74
2023/07/17 22:27:11;;;;;;;31.60;29.40;;;20.30;65.30;;;;;;5094409;28;20468;-74
2023/07/17 22:29:38;;;;;;;28.33;26.53;;;20.20;64.90;;;;;;5109693;28;20808;-74
2023/07/17 22:32:06;;;;;;;29.77;27.77;;;20.20;64.90;;;;;;5092845;28;20978;-74
2023/07/17 22:34:33;;;;;;;29.60;27.80;;;20.10;65.20;;;;;;5107080;27;20461;-74
2023/07/17 22:37:00;;;;;;;31.07;29.00;;;20.00;65.40;;;;;;5103159;28;21132;-73
2023/07/17 22:39:27;;;;;;;30.50;28.50;;;20.00;65.40;;;;;;5090244;27;21262;-74
2023/07/17 22:41:55;;;;;;;29.20;27.30;;;20.00;65.40;;;;;;5099384;28;20543;-73
2023/07/17 22:44:22;;;;;;;28.67;26.97;;;20.00;65.40;;;;;;5090307;28;20483;-74
2023/07/17 22:46:49;;;;;;;29.27;27.40;;;19.90;65.60;;;;;;5100440;28;20833;-74
2023/07/17 22:49:16;;;;;;;29.87;27.70;;;19.90;65.70;;;;;;5090251;27;20472;-74
2023/07/17 22:51:43;;;;;;;31.10;28.93;;;19.80;66.00;;;;;;5106724;28;20461;-74
2023/07/17 22:54:11;;;;;;;29.83;28.03;;;19.90;66.40;;;;;;5089144;28;20445;-74
2023/07/17 22:56:38;;;;;;;29.07;27.27;;;19.90;66.30;;;;;;5083912;28;20473;-74
2023/07/17 22:59:07;;;;;;;33.57;31.47;;;19.80;66.40;;;;;;5088449;28;21127;-74
2023/07/17 23:01:35;;;;;;;29.40;27.50;;;19.80;66.40;;;;;;5088733;28;20468;-76
2023/07/17 23:04:02;;;;;;;29.17;27.37;;;19.80;66.30;;;;;;5096676;28;20476;-74
2023/07/17 23:06:29;;;;;;;33.13;31.03;;;19.70;66.40;;;;;;5090020;28;20513;-74
2023/07/17 23:08:56;;;;;;;30.13;28.00;;;19.60;66.70;;;;;;5109456;28;20452;-74
2023/07/17 23:11:23;;;;;;;30.73;28.93;;;19.60;66.80;;;;;;5106912;27;20466;-74
2023/07/17 23:13:51;;;;;;;30.17;28.30;;;19.50;67.00;;;;;;5109609;28;20451;-74
2023/07/17 23:16:19;;;;;;;29.50;27.63;;;19.40;67.20;;;;;;5093918;27;20453;-74
2023/07/17 23:18:50;;;;;;;28.90;27.10;;;19.40;67.30;;;;;;5107786;28;20457;-74
2023/07/17 23:21:19;;;;;;;29.47;27.57;;;19.40;67.40;;;;;;5104925;28;21359;-74
2023/07/17 23:23:46;;;;;;;30.03;28.07;;;19.30;68.00;;;;;;5101269;28;20472;-74
2023/07/17 23:26:12;;;;;;;29.33;27.33;;;19.20;68.00;;;;;;5098807;28;20532;-74
2023/07/17 23:28:40;;;;;;;28.67;26.97;;;19.20;68.10;;;;;;5093394;28;20463;-73
2023/07/17 23:31:09;;;;;;;30.50;28.57;;;19.20;68.10;;;;;;5091456;27;20460;-73
2023/07/17 23:33:38;;;;;;;29.40;27.60;;;19.10;68.20;;;;;;5092385;28;20498;-73
2023/07/17 23:36:06;;;;;;;29.33;27.60;;;19.20;67.90;;;;;;5091845;28;20936;-73
2023/07/17 23:38:33;;;;;;;29.17;27.13;;;19.10;68.40;;;;;;5095802;28;20448;-73
2023/07/17 23:41:00;;;;;;;29.13;27.43;;;19.10;68.20;;;;;;5106050;28;20448;-73
2023/07/17 23:43:28;;;;;;;28.57;26.87;;;19.10;68.60;;;;;;5100481;28;20483;-73
2023/07/17 23:45:55;;;;;;;29.30;27.40;;;19.00;68.60;;;;;;5094901;28;20448;-73
2023/07/17 23:48:22;;;;;;;30.27;28.50;;;19.00;68.60;;;;;;5091816;28;20488;-74
2023/07/17 23:50:51;;;;;;;30.40;28.50;;;18.90;69.00;;;;;;5089369;28;20987;-73
2023/07/17 23:53:18;;;;;;;29.40;27.60;;;18.90;69.00;;;;;;5090479;28;20469;-73
2023/07/17 23:55:46;;;;;;;29.03;27.03;;;18.90;69.20;;;;;;5096185;28;20460;-73
2023/07/17 23:58:14;;;;;;;29.87;27.80;;;18.80;69.30;;;;;;5097147;28;20565;-73
